CPA841 VHHH-KJFK
Flight info
| Callsign | CPA841 |
|---|---|
| Flight time | N/A |
| Altitude | 33000 |
| Route | DALOL V631 ENVAR M750 INVAM/N0496F350 M750 MUKEP Y891 OVSUN/N0500F340 Y893 IGMIS/N0495F350 Y57 POROT Y809 IDLAN Y812 ADNAP OTR5 KALNA DCT 41N160E/N0488F370 42N170E 44N180E 47N170W 50N160W/N0497F390 5158N15014W DCT SAYNT DCT KATCH DCT 54N130W 54N120W 5230N11000W/N0494F410 DCT EMLIK DCT GFK DCT GRB DCT TWIGS DCT JHW J106 MAGIO Q476 WLKES PUCKY1 |
| Aircraft | A359/H-SDE2E3GHIJ3J4J5LM1ORWXY/LB1D1 |
Departure
| Time | 2026-05-04 05:37 |
|---|---|
| Airport | Hong Kong International Airport (VHHH) |
Arrival
| Time | N/A |
|---|---|
| Airport | John F. Kennedy International Airport (KJFK) |
| Time | Latitude | Longitude | Altitude | Speed | Heading |
|---|---|---|---|---|---|
| 2026-05-04 05:10 | 22.31038 | 113.91666 | 27 ft | 0 kts | 71° |
| 2026-05-04 05:27 | 22.31032 | 113.91649 | 42 ft | 2 kts | 68° |
| 2026-05-04 05:28 | 22.30969 | 113.91585 | 42 ft | 0 kts | 342° |
| 2026-05-04 05:31 | 22.31406 | 113.91371 | 44 ft | 15 kts | 275° |
| 2026-05-04 05:31 | 22.31386 | 113.91266 | 44 ft | 16 kts | 251° |
| 2026-05-04 05:32 | 22.31313 | 113.91041 | 43 ft | 39 kts | 251° |
| 2026-05-04 05:32 | 22.31225 | 113.90771 | 43 ft | 37 kts | 251° |
| 2026-05-04 05:32 | 22.31142 | 113.90510 | 43 ft | 36 kts | 251° |
| 2026-05-04 05:33 | 22.30983 | 113.90021 | 43 ft | 33 kts | 251° |
| 2026-05-04 05:33 | 22.30938 | 113.89837 | 43 ft | 3 kts | 295° |
| 2026-05-04 05:33 | 22.30983 | 113.89798 | 43 ft | 24 kts | 330° |
| 2026-05-04 05:33 | 22.31099 | 113.89802 | 42 ft | 0 kts | 63° |
| 2026-05-04 05:34 | 22.31105 | 113.89823 | 42 ft | 0 kts | 71° |
| 2026-05-04 05:36 | 22.31109 | 113.89838 | 42 ft | 15 kts | 71° |
| 2026-05-04 05:36 | 22.31220 | 113.90179 | 42 ft | 79 kts | 71° |
| 2026-05-04 05:36 | 22.31465 | 113.90946 | 45 ft | 135 kts | 71° |
| 2026-05-04 05:36 | 22.31820 | 113.92061 | 43 ft | 183 kts | 71° |
| 2026-05-04 05:37 | 22.32257 | 113.93404 | 672 ft | 181 kts | 69° |
| 2026-05-04 05:37 | 22.32641 | 113.94660 | 1459 ft | 184 kts | 73° |
| 2026-05-04 05:37 | 22.33070 | 113.96039 | 1709 ft | 201 kts | 71° |
| 2026-05-04 05:38 | 22.33732 | 113.99118 | 2306 ft | 219 kts | 81° |
| 2026-05-04 05:38 | 22.33801 | 114.00772 | 2730 ft | 221 kts | 96° |
| 2026-05-04 05:38 | 22.33402 | 114.02389 | 3110 ft | 227 kts | 115° |
| 2026-05-04 05:38 | 22.32502 | 114.03803 | 3491 ft | 232 kts | 135° |
| 2026-05-04 05:39 | 22.31215 | 114.04872 | 3904 ft | 235 kts | 149° |
| 2026-05-04 05:39 | 22.28367 | 114.06689 | 4795 ft | 240 kts | 151° |
| 2026-05-04 05:39 | 22.26940 | 114.07605 | 5203 ft | 242 kts | 151° |
| 2026-05-04 05:40 | 22.23781 | 114.08730 | 5964 ft | 244 kts | 182° |
| 2026-05-04 05:40 | 22.22040 | 114.08721 | 6172 ft | 256 kts | 184° |
| 2026-05-04 05:40 | 22.20220 | 114.08680 | 6397 ft | 268 kts | 184° |
| 2026-05-04 05:41 | 22.18332 | 114.08682 | 6726 ft | 275 kts | 179° |
| 2026-05-04 05:41 | 22.16467 | 114.09251 | 7090 ft | 286 kts | 152° |
| 2026-05-04 05:41 | 22.15027 | 114.10755 | 7507 ft | 295 kts | 124° |
| 2026-05-04 05:41 | 22.14044 | 114.12710 | 7921 ft | 299 kts | 118° |
| 2026-05-04 05:42 | 22.13117 | 114.14739 | 8331 ft | 302 kts | 118° |
| 2026-05-04 05:42 | 22.12174 | 114.16775 | 8794 ft | 305 kts | 119° |
| 2026-05-04 05:42 | 22.11210 | 114.18833 | 9223 ft | 308 kts | 120° |
| 2026-05-04 05:42 | 22.10233 | 114.20904 | 9669 ft | 311 kts | 120° |
| 2026-05-04 05:43 | 22.09244 | 114.22991 | 10101 ft | 314 kts | 120° |
| 2026-05-04 05:43 | 22.08209 | 114.25100 | 10332 ft | 323 kts | 124° |
| 2026-05-04 05:43 | 22.06762 | 114.26961 | 10503 ft | 327 kts | 144° |
| 2026-05-04 05:45 | 21.92653 | 114.38076 | 11875 ft | 391 kts | 148° |
| 2026-05-04 05:45 | 21.90431 | 114.39821 | 12046 ft | 399 kts | 148° |
| 2026-05-04 05:47 | 21.81076 | 114.58591 | 14076 ft | 437 kts | 108° |
| 2026-05-04 05:47 | 21.80279 | 114.61717 | 14357 ft | 439 kts | 108° |
| 2026-05-04 05:47 | 21.79463 | 114.64894 | 14638 ft | 441 kts | 108° |
| 2026-05-04 05:48 | 21.78640 | 114.68083 | 14943 ft | 443 kts | 108° |
| 2026-05-04 05:48 | 21.77810 | 114.71289 | 15224 ft | 445 kts | 108° |
| 2026-05-04 05:48 | 21.76978 | 114.74503 | 15513 ft | 447 kts | 108° |
| 2026-05-04 05:48 | 21.76423 | 114.76644 | 15703 ft | 449 kts | 108° |
| 2026-05-04 05:49 | 21.75291 | 114.80995 | 16075 ft | 452 kts | 108° |
| 2026-05-04 05:49 | 21.74546 | 114.84267 | 16337 ft | 456 kts | 101° |
| 2026-05-04 05:49 | 21.74225 | 114.87697 | 16632 ft | 460 kts | 95° |
| 2026-05-04 05:49 | 21.74141 | 114.91142 | 16904 ft | 463 kts | 92° |
| 2026-05-04 05:51 | 21.74362 | 115.10092 | 18329 ft | 475 kts | 92° |
| 2026-05-04 05:51 | 21.74364 | 115.13024 | 18507 ft | 477 kts | 92° |
| 2026-05-04 05:52 | 21.74363 | 115.14189 | 18587 ft | 477 kts | 92° |
| 2026-05-04 05:52 | 21.74358 | 115.17000 | 18767 ft | 478 kts | 92° |
| 2026-05-04 05:52 | 21.74354 | 115.18920 | 18903 ft | 479 kts | 92° |
| 2026-05-04 05:52 | 21.74350 | 115.20557 | 19002 ft | 480 kts | 92° |
| 2026-05-04 05:53 | 21.74347 | 115.21871 | 19087 ft | 480 kts | 92° |
| 2026-05-04 05:54 | 21.74327 | 115.32223 | 19713 ft | 485 kts | 92° |
| 2026-05-04 05:55 | 21.74322 | 115.33863 | 19826 ft | 486 kts | 92° |
| 2026-05-04 05:55 | 21.74319 | 115.34725 | 19868 ft | 486 kts | 92° |
| 2026-05-04 05:55 | 21.74316 | 115.35848 | 19938 ft | 487 kts | 92° |
| 2026-05-04 05:55 | 21.74313 | 115.37054 | 20011 ft | 487 kts | 92° |
| 2026-05-04 05:56 | 21.74309 | 115.38439 | 20095 ft | 488 kts | 92° |
| 2026-05-04 05:56 | 21.74306 | 115.39406 | 20162 ft | 488 kts | 92° |
| 2026-05-04 05:56 | 21.74302 | 115.40633 | 20233 ft | 489 kts | 92° |
| 2026-05-04 05:56 | 21.74299 | 115.41870 | 20316 ft | 489 kts | 92° |
| 2026-05-04 05:57 | 21.74297 | 115.42597 | 20354 ft | 489 kts | 92° |
| 2026-05-04 05:57 | 21.74293 | 115.43833 | 20424 ft | 490 kts | 92° |
| 2026-05-04 05:57 | 21.74290 | 115.44819 | 20481 ft | 490 kts | 92° |
| 2026-05-04 05:57 | 21.74288 | 115.45540 | 20525 ft | 491 kts | 92° |
| 2026-05-04 05:58 | 21.74285 | 115.46529 | 20583 ft | 491 kts | 92° |
| 2026-05-04 05:58 | 21.74282 | 115.47336 | 20622 ft | 491 kts | 92° |
| 2026-05-04 05:58 | 21.74280 | 115.48056 | 20674 ft | 492 kts | 92° |
| 2026-05-04 05:58 | 21.74272 | 115.50425 | 20832 ft | 492 kts | 92° |
| 2026-05-04 05:59 | 21.74258 | 115.54119 | 21030 ft | 494 kts | 92° |
| 2026-05-04 05:59 | 21.74245 | 115.57819 | 21257 ft | 496 kts | 91° |
| 2026-05-04 05:59 | 21.74235 | 115.61535 | 21471 ft | 497 kts | 91° |
| 2026-05-04 05:59 | 21.74223 | 115.65258 | 21681 ft | 498 kts | 91° |
| 2026-05-04 06:00 | 21.74208 | 115.68994 | 21894 ft | 500 kts | 91° |
| 2026-05-04 06:00 | 21.74193 | 115.72742 | 22098 ft | 501 kts | 91° |
| 2026-05-04 06:00 | 21.74175 | 115.76497 | 22314 ft | 503 kts | 91° |
| 2026-05-04 06:00 | 21.74157 | 115.80221 | 22511 ft | 504 kts | 91° |
| 2026-05-04 06:01 | 21.74137 | 115.83996 | 22703 ft | 506 kts | 91° |
| 2026-05-04 06:01 | 21.74118 | 115.87782 | 22917 ft | 507 kts | 91° |
| 2026-05-04 06:03 | 21.73960 | 116.14613 | 24108 ft | 517 kts | 91° |
| 2026-05-04 06:03 | 21.73933 | 116.18495 | 24263 ft | 518 kts | 91° |
| 2026-05-04 06:05 | 21.73720 | 116.45837 | 25318 ft | 528 kts | 91° |
| 2026-05-04 06:05 | 21.73649 | 116.53756 | 25619 ft | 531 kts | 91° |
| 2026-05-04 06:05 | 21.73612 | 116.57729 | 25756 ft | 532 kts | 91° |
| 2026-05-04 06:06 | 21.73574 | 116.61724 | 25907 ft | 534 kts | 91° |
| 2026-05-04 06:06 | 21.73535 | 116.65721 | 26070 ft | 535 kts | 91° |
| 2026-05-04 06:06 | 21.73496 | 116.69725 | 26230 ft | 537 kts | 91° |
| 2026-05-04 06:06 | 21.73481 | 116.73747 | 26374 ft | 539 kts | 89° |
| 2026-05-04 06:07 | 21.73817 | 116.77767 | 26530 ft | 540 kts | 81° |
| 2026-05-04 06:07 | 21.74686 | 116.81697 | 26672 ft | 541 kts | 71° |
| 2026-05-04 06:07 | 21.75894 | 116.85535 | 26833 ft | 542 kts | 69° |
| 2026-05-04 06:07 | 21.77218 | 116.89336 | 26985 ft | 543 kts | 68° |
| 2026-05-04 06:08 | 21.78603 | 116.93126 | 27142 ft | 544 kts | 67° |
| 2026-05-04 06:08 | 21.80008 | 116.96909 | 27297 ft | 545 kts | 67° |
| 2026-05-04 06:08 | 21.81415 | 117.00705 | 27440 ft | 547 kts | 67° |
| 2026-05-04 06:08 | 21.82816 | 117.04516 | 27575 ft | 548 kts | 67° |
| 2026-05-04 06:09 | 21.84194 | 117.08293 | 27709 ft | 550 kts | 67° |
| 2026-05-04 06:09 | 21.85583 | 117.12126 | 27869 ft | 551 kts | 67° |
| 2026-05-04 06:11 | 21.95290 | 117.39147 | 28779 ft | 560 kts | 67° |
| 2026-05-04 06:11 | 21.96518 | 117.42574 | 28909 ft | 560 kts | 67° |
| 2026-05-04 06:13 | 22.03450 | 117.57598 | 29572 ft | 556 kts | 56° |
| 2026-05-04 06:14 | 22.07608 | 117.64907 | 29924 ft | 556 kts | 56° |
| 2026-05-04 06:14 | 22.08107 | 117.65778 | 29964 ft | 556 kts | 56° |
| 2026-05-04 06:15 | 22.09211 | 117.67709 | 30062 ft | 556 kts | 56° |
| 2026-05-04 06:15 | 22.09892 | 117.68902 | 30118 ft | 556 kts | 56° |
| 2026-05-04 06:16 | 22.11021 | 117.70880 | 30187 ft | 556 kts | 56° |
| 2026-05-04 06:16 | 22.11850 | 117.72334 | 30254 ft | 556 kts | 56° |
| 2026-05-04 06:17 | 22.12693 | 117.73815 | 30306 ft | 556 kts | 56° |
| 2026-05-04 06:17 | 22.13448 | 117.75143 | 30369 ft | 556 kts | 56° |
| 2026-05-04 06:18 | 22.13929 | 117.75992 | 30395 ft | 556 kts | 56° |
| 2026-05-04 06:20 | 22.16569 | 117.80649 | 30631 ft | 555 kts | 56° |
| 2026-05-04 06:21 | 22.17787 | 117.82802 | 30745 ft | 554 kts | 56° |
| 2026-05-04 06:22 | 22.18181 | 117.83498 | 30775 ft | 554 kts | 56° |
| 2026-05-04 06:25 | 22.21419 | 117.89231 | 31041 ft | 553 kts | 56° |
| 2026-05-04 06:26 | 22.21816 | 117.89935 | 31085 ft | 553 kts | 56° |
| 2026-05-04 06:26 | 22.22258 | 117.90718 | 31118 ft | 553 kts | 56° |
| 2026-05-04 06:27 | 22.23317 | 117.92594 | 31211 ft | 553 kts | 56° |
| 2026-05-04 06:28 | 22.23622 | 117.93135 | 31233 ft | 553 kts | 56° |
| 2026-05-04 06:28 | 22.23932 | 117.93685 | 31255 ft | 553 kts | 56° |
| 2026-05-04 06:29 | 22.24238 | 117.94227 | 31280 ft | 553 kts | 56° |
| 2026-05-04 06:29 | 22.24680 | 117.95010 | 31329 ft | 553 kts | 56° |
| 2026-05-04 06:30 | 22.24986 | 117.95555 | 31344 ft | 553 kts | 56° |
| 2026-05-04 06:30 | 22.25292 | 117.96097 | 31368 ft | 553 kts | 56° |
| 2026-05-04 06:31 | 22.25482 | 117.96433 | 31384 ft | 552 kts | 56° |
| 2026-05-04 06:31 | 22.25783 | 117.96967 | 31412 ft | 552 kts | 56° |
| 2026-05-04 06:33 | 22.26820 | 117.98807 | 31505 ft | 552 kts | 56° |
| 2026-05-04 06:34 | 22.27104 | 117.99311 | 31520 ft | 552 kts | 56° |
| 2026-05-04 06:34 | 22.27394 | 117.99825 | 31557 ft | 552 kts | 56° |
| 2026-05-04 06:36 | 22.28364 | 118.01547 | 31644 ft | 552 kts | 56° |
| 2026-05-04 06:37 | 22.28670 | 118.02090 | 31673 ft | 551 kts | 56° |
| 2026-05-04 06:37 | 22.29114 | 118.02872 | 31715 ft | 551 kts | 56° |
| 2026-05-04 06:38 | 22.29199 | 118.03023 | 31723 ft | 551 kts | 56° |
| 2026-05-04 06:40 | 22.30162 | 118.04700 | 31782 ft | 551 kts | 55° |
| 2026-05-04 06:40 | 22.30512 | 118.05305 | 31822 ft | 551 kts | 55° |
| 2026-05-04 06:41 | 22.30599 | 118.05454 | 31825 ft | 551 kts | 55° |
| 2026-05-04 06:41 | 22.30789 | 118.05781 | 31837 ft | 550 kts | 55° |
| 2026-05-04 06:42 | 22.30875 | 118.05928 | 31842 ft | 550 kts | 55° |
| 2026-05-04 06:44 | 22.31674 | 118.07295 | 31912 ft | 550 kts | 55° |
| 2026-05-04 06:44 | 22.31762 | 118.07446 | 31919 ft | 550 kts | 55° |
| 2026-05-04 06:45 | 22.31984 | 118.07824 | 31938 ft | 550 kts | 55° |
| 2026-05-04 06:45 | 22.32436 | 118.08593 | 31985 ft | 550 kts | 54° |
| 2026-05-04 06:46 | 22.32441 | 118.08602 | 31988 ft | 550 kts | 54° |
| 2026-05-04 06:46 | 22.32510 | 118.08718 | 31994 ft | 550 kts | 54° |
| 2026-05-04 06:48 | 22.33565 | 118.10509 | 32071 ft | 550 kts | 54° |
| 2026-05-04 06:50 | 22.34276 | 118.11716 | 32129 ft | 549 kts | 54° |
| 2026-05-04 06:51 | 22.34501 | 118.12097 | 32152 ft | 549 kts | 54° |
| 2026-05-04 06:51 | 22.34663 | 118.12372 | 32162 ft | 549 kts | 54° |
| 2026-05-04 06:52 | 22.34752 | 118.12523 | 32169 ft | 549 kts | 54° |
| 2026-05-04 06:52 | 22.34975 | 118.12902 | 32179 ft | 549 kts | 54° |
| 2026-05-04 06:53 | 22.35202 | 118.13286 | 32211 ft | 549 kts | 54° |
| 2026-05-04 06:53 | 22.35291 | 118.13437 | 32218 ft | 549 kts | 54° |
| 2026-05-04 06:54 | 22.35535 | 118.13852 | 32236 ft | 549 kts | 54° |
| 2026-05-04 06:54 | 22.35839 | 118.14368 | 32252 ft | 549 kts | 54° |
| 2026-05-04 06:55 | 22.35927 | 118.14517 | 32267 ft | 549 kts | 54° |
| 2026-05-04 06:55 | 22.36152 | 118.14899 | 32284 ft | 549 kts | 54° |
| 2026-05-04 06:57 | 22.36919 | 118.16204 | 32348 ft | 549 kts | 55° |
| 2026-05-04 06:58 | 22.37006 | 118.16352 | 32353 ft | 549 kts | 55° |
| 2026-05-04 06:58 | 22.37232 | 118.16736 | 32366 ft | 549 kts | 55° |
| 2026-05-04 06:59 | 22.37461 | 118.17127 | 32384 ft | 549 kts | 55° |
| 2026-05-04 06:59 | 22.37689 | 118.17516 | 32403 ft | 549 kts | 55° |
| 2026-05-04 07:01 | 22.38312 | 118.18578 | 32453 ft | 549 kts | 55° |
| 2026-05-04 07:02 | 22.38404 | 118.18735 | 32461 ft | 549 kts | 55° |
| 2026-05-04 07:02 | 22.38624 | 118.19112 | 32491 ft | 549 kts | 55° |
| 2026-05-04 07:03 | 22.38850 | 118.19498 | 32508 ft | 549 kts | 55° |
| 2026-05-04 07:03 | 22.38937 | 118.19646 | 32515 ft | 548 kts | 55° |
| 2026-05-04 07:04 | 22.39024 | 118.19794 | 32518 ft | 548 kts | 55° |
| 2026-05-04 07:04 | 22.39242 | 118.20168 | 32532 ft | 548 kts | 55° |
| 2026-05-04 07:05 | 22.39338 | 118.20332 | 32531 ft | 548 kts | 55° |
| 2026-05-04 07:05 | 22.39748 | 118.21033 | 32586 ft | 548 kts | 55° |
| 2026-05-04 07:06 | 22.39796 | 118.21115 | 32589 ft | 548 kts | 55° |
| 2026-05-04 07:07 | 22.39874 | 118.21249 | 32595 ft | 549 kts | 55° |
| 2026-05-04 07:09 | 22.40550 | 118.22406 | 32599 ft | 550 kts | 55° |
| 2026-05-04 07:09 | 22.40583 | 118.22464 | 32598 ft | 550 kts | 55° |
| 2026-05-04 07:10 | 22.40806 | 118.22846 | 32594 ft | 550 kts | 55° |
| 2026-05-04 07:12 | 22.41374 | 118.23825 | 32561 ft | 552 kts | 55° |
| 2026-05-04 07:12 | 22.41447 | 118.23951 | 32560 ft | 552 kts | 56° |
| 2026-05-04 07:13 | 22.41534 | 118.24102 | 32554 ft | 552 kts | 56° |
| 2026-05-04 07:13 | 22.41614 | 118.24240 | 32555 ft | 552 kts | 56° |
| 2026-05-04 07:14 | 22.41925 | 118.24781 | 32559 ft | 553 kts | 56° |
| 2026-05-04 07:15 | 22.42186 | 118.25235 | 32559 ft | 553 kts | 56° |
| 2026-05-04 07:16 | 22.42237 | 118.25324 | 32557 ft | 553 kts | 56° |
| 2026-05-04 07:16 | 22.42457 | 118.25709 | 32581 ft | 553 kts | 56° |
| 2026-05-04 07:17 | 22.42820 | 118.26346 | 32599 ft | 554 kts | 56° |
| 2026-05-04 07:17 | 22.42900 | 118.26486 | 32609 ft | 554 kts | 56° |
| 2026-05-04 07:18 | 22.42908 | 118.26501 | 32609 ft | 554 kts | 56° |
| 2026-05-04 07:19 | 22.43196 | 118.27007 | 32630 ft | 554 kts | 56° |
| 2026-05-04 07:19 | 22.43274 | 118.27144 | 32635 ft | 554 kts | 56° |
| 2026-05-04 07:20 | 22.43499 | 118.27540 | 32656 ft | 553 kts | 56° |
| 2026-05-04 07:22 | 22.44303 | 118.28961 | 32755 ft | 553 kts | 56° |
| 2026-05-04 07:23 | 22.44384 | 118.29106 | 32765 ft | 553 kts | 56° |
| 2026-05-04 07:23 | 22.44471 | 118.29260 | 32773 ft | 553 kts | 56° |
| 2026-05-04 07:24 | 22.44475 | 118.29266 | 32772 ft | 553 kts | 56° |
| 2026-05-04 07:26 | 22.45297 | 118.30727 | 32856 ft | 552 kts | 56° |
| 2026-05-04 07:27 | 22.45413 | 118.30933 | 32867 ft | 552 kts | 56° |
| 2026-05-04 07:27 | 22.45634 | 118.31324 | 32881 ft | 552 kts | 56° |
| 2026-05-04 07:28 | 22.45832 | 118.31677 | 32907 ft | 552 kts | 56° |
| 2026-05-04 07:29 | 22.45931 | 118.31854 | 32916 ft | 552 kts | 56° |